KBRO/BRO METAR and TAF weather

Enter ICAO airport designator
Station Type Date Time Source
KBRO METAR 2019/02/16 03:14 UTC NOAA

KBRO 160314Z 15012KT 10SM OVC006 22/22 A2979 RMK AO2 T02220217


Station Type Date Time Source
KBRO Decoded METAR 2019/02/16 03:14 UTC NOAA

BROWNSVILLE/SOUTH PADRE IS, TX, United States (KBRO) 25-54N 97-25W 5M
Feb 15, 2019 - 10:14 PM EST / 2019.02.16 0314 UTC
Wind: from the SSE (150 degrees) at 14 MPH (12 KT):0
Visibility: 10 mile(s):0
Sky conditions: overcast
Temperature: 72.0 F (22.2 C)
Dew Point: 71.1 F (21.7 C)
Relative Humidity: 96%
Pressure (altimeter): 29.79 in. Hg (1008 hPa)
ob: KBRO 160314Z 15012KT 10SM OVC006 22/22 A2979 RMK AO2 T02220217
cycle: 3

Station Type Date Time Source
KBRO TAF 2019/02/15 18:22 UTC NOAA

TAF KBRO 151720Z 1518/1618 19015G24KT P6SM FEW016
FM160000 17014KT 5SM HZ BKN250
FM160300 17008KT 4SM BR OVC004
FM161200 22004KT 1/2SM FG BKN004
FM161500 19008KT 1/2SM FG OVC001


Example: see airport list